createdAt,value
2017-07-04T00:01:34.926Z,6
2017-07-04T00:11:34.951Z,6
2017-07-04T00:21:34.959Z,6
2017-07-04T00:31:35.797Z,6
2017-07-04T00:41:39.710Z,6
2017-07-04T00:51:35.101Z,6
2017-07-04T01:01:34.893Z,7
2017-07-04T01:11:35.097Z,7
2017-07-04T01:21:35.051Z,8
2017-07-04T01:31:35.043Z,7
2017-07-04T01:41:34.968Z,8
2017-07-04T01:51:34.954Z,9
2017-07-04T02:01:35.079Z,9
2017-07-04T02:11:35.061Z,9
2017-07-04T02:21:34.999Z,8
2017-07-04T02:31:35.071Z,8
2017-07-04T02:41:35.234Z,8
2017-07-04T02:51:35.059Z,8
2017-07-04T03:01:35.235Z,9
2017-07-04T03:11:35.048Z,9
2017-07-04T03:21:35.653Z,9
2017-07-04T03:31:34.981Z,10
2017-07-04T03:41:35.225Z,10
2017-07-04T03:51:35.115Z,11
2017-07-04T04:01:35.918Z,11
2017-07-04T04:11:35.216Z,12
2017-07-04T04:21:35.085Z,12
2017-07-04T04:31:35.200Z,14
2017-07-04T04:41:35.387Z,13
2017-07-04T04:51:35.271Z,14
2017-07-04T05:01:36.391Z,14
2017-07-04T05:11:35.559Z,13
2017-07-04T05:21:35.326Z,17
2017-07-04T05:31:35.548Z,13
2017-07-04T05:41:35.664Z,9
2017-07-04T05:51:35.394Z,8
2017-07-04T06:01:35.485Z,8
2017-07-04T06:11:35.503Z,8
2017-07-04T06:21:35.615Z,8
2017-07-04T06:31:35.598Z,8
2017-07-04T06:41:35.356Z,7
2017-07-04T06:51:35.232Z,6
2017-07-04T07:01:35.391Z,7
2017-07-04T07:11:35.327Z,7
2017-07-04T07:21:35.192Z,6
2017-07-04T07:31:35.388Z,6
2017-07-04T07:41:35.278Z,7
2017-07-04T07:51:35.420Z,7
2017-07-04T08:01:35.362Z,6
2017-07-04T08:11:35.340Z,6
2017-07-04T08:21:35.531Z,6
2017-07-04T08:31:35.365Z,7
2017-07-04T08:41:35.332Z,9
2017-07-04T08:51:35.359Z,10
2017-07-04T09:01:35.418Z,8
2017-07-04T09:11:35.421Z,7
2017-07-04T09:21:35.327Z,6
2017-07-04T09:31:35.351Z,7
2017-07-04T09:41:35.461Z,6
2017-07-04T09:51:35.786Z,5
2017-07-04T10:01:36.207Z,5
2017-07-04T10:11:35.449Z,6
2017-07-04T10:21:35.337Z,5
2017-07-04T10:31:36.123Z,5
2017-07-04T10:41:35.788Z,6
2017-07-04T10:51:35.429Z,5
2017-07-04T11:01:36.138Z,4
2017-07-04T11:11:35.686Z,4
2017-07-04T11:21:35.372Z,4
2017-07-04T11:31:35.390Z,4
2017-07-04T11:41:35.394Z,4
2017-07-04T11:51:35.519Z,5
2017-07-04T12:01:35.657Z,5
2017-07-04T12:11:35.568Z,4
2017-07-04T12:21:35.353Z,4
2017-07-04T12:31:35.427Z,5
2017-07-04T12:41:35.387Z,4
2017-07-04T12:51:35.461Z,4
2017-07-04T13:01:35.720Z,4
2017-07-04T13:11:35.633Z,4
2017-07-04T13:21:36.496Z,5
2017-07-04T13:31:35.785Z,3
2017-07-04T13:41:35.646Z,4
2017-07-04T13:51:35.509Z,6
2017-07-04T14:01:35.411Z,4
2017-07-04T14:11:35.801Z,4
2017-07-04T14:21:35.681Z,4
2017-07-04T14:31:35.447Z,2
2017-07-04T14:41:35.418Z,2
2017-07-04T14:51:35.467Z,2
2017-07-04T15:01:35.651Z,2
2017-07-04T15:11:35.489Z,2
2017-07-04T15:21:35.423Z,2
2017-07-04T15:31:35.494Z,3
2017-07-04T15:41:35.455Z,2
2017-07-04T15:51:35.549Z,2
2017-07-04T16:01:35.410Z,2
2017-07-04T16:11:35.432Z,2
2017-07-04T16:21:35.505Z,2
2017-07-04T16:31:35.489Z,2
2017-07-04T16:41:35.523Z,2
2017-07-04T16:51:35.490Z,2
2017-07-04T17:01:35.503Z,3
2017-07-04T17:11:35.429Z,2
2017-07-04T17:21:35.524Z,2
2017-07-04T17:31:35.519Z,2
2017-07-04T17:41:35.544Z,1
2017-07-04T17:51:35.463Z,2
2017-07-04T18:01:36.024Z,1
2017-07-04T18:11:35.647Z,2
2017-07-04T18:21:37.645Z,1
2017-07-04T18:31:35.976Z,2
2017-07-04T18:41:35.624Z,2
2017-07-04T18:51:35.506Z,1
2017-07-04T19:01:37.495Z,2
2017-07-04T19:11:35.504Z,2
2017-07-04T19:21:35.481Z,1
2017-07-04T19:31:35.525Z,1
2017-07-04T19:41:36.124Z,1
2017-07-04T19:51:35.607Z,1
2017-07-04T20:01:36.576Z,2
2017-07-04T20:11:35.876Z,1
2017-07-04T20:21:35.628Z,1
2017-07-04T20:31:35.781Z,2
2017-07-04T20:41:35.961Z,1
2017-07-04T20:51:35.507Z,1
2017-07-04T21:01:36.046Z,1
2017-07-04T21:11:36.027Z,2
2017-07-04T21:21:35.512Z,1
2017-07-04T21:31:35.669Z,1
2017-07-04T21:41:35.578Z,1
2017-07-04T21:51:35.617Z,1
2017-07-04T22:01:35.653Z,1
2017-07-04T22:11:35.722Z,2
2017-07-04T22:21:35.689Z,2
2017-07-04T22:31:35.698Z,2
2017-07-04T22:41:36.351Z,2
2017-07-04T22:51:36.350Z,2
2017-07-04T23:01:36.248Z,2
2017-07-04T23:11:35.713Z,2
2017-07-04T23:21:36.567Z,2
2017-07-04T23:31:37.465Z,2
2017-07-04T23:41:35.554Z,2
2017-07-04T23:51:35.694Z,2
